Time;durP1;ratioP1;P1;durP2;ratioP2;P2;SDS_P1;SDS_P2;PMS_P1;PMS_P2;Temp;Humidity;BMP_temperature;BMP_pressure;BME280_temperature;BME280_humidity;BME280_pressure;Samples;Min_cycle;Max_cycle;Signal;HPM_P1;HPM_P2
2022/10/07 00:00:56;;;;;;;;;;;;;;;;;;5060399;28;866;-75
2022/10/07 00:03:22;;;;;;;;;;;;;;;;;;5060197;28;1910;-75
2022/10/07 00:05:58;;;;;;;;;;;;;;;;;;5059929;28;846;-75
2022/10/07 00:08:23;;;;;;;;;;;;;;;;;;5060038;28;1073;-75
2022/10/07 00:10:48;;;;;;;;;;;;;;;;;;5062016;28;1016;-75
2022/10/07 00:13:13;;;;;;;;;;;;;;;;;;5063802;28;1200;-75
2022/10/07 00:15:38;;;;;;;;;;;;;;;;;;5063371;28;902;-75
2022/10/07 00:18:04;;;;;;;;;;;;;;;;;;5063694;28;819;-75
2022/10/07 00:20:29;;;;;;;;;;;;;;;;;;5063543;28;823;-75
2022/10/07 00:22:54;;;;;;;;;;;;;;;;;;5063443;28;1957;-75
2022/10/07 00:25:20;;;;;;;;;;;;;;;;;;5063332;28;1189;-76
2022/10/07 00:27:45;;;;;;;;;;;;;;;;;;5063575;28;843;-75
2022/10/07 00:30:10;;;;;;;;;;;;;;;;;;5063431;28;811;-75
2022/10/07 00:32:36;;;;;;;;;;;;;;;;;;5063607;28;881;-75
2022/10/07 00:35:01;;;;;;;;;;;;;;;;;;5063208;28;1235;-76
2022/10/07 00:37:26;;;;;;;;;;;;;;;;;;5063180;28;1040;-76
2022/10/07 00:39:51;;;;;;;;;;;;;;;;;;5063193;28;899;-76
2022/10/07 00:42:16;;;;;;;;;;;;;;;;;;5063184;28;981;-75
2022/10/07 00:44:43;;;;;;;;;;;;;;;;;;5084004;22;2237;-77
2022/10/07 00:47:28;;;;;;;;;;;;;;;;;;5083962;28;802;-77
2022/10/07 00:49:53;;;;;;;;;;;;;;;;;;5083889;28;918;-77
2022/10/07 00:52:20;;;;;;;;;;;;;;;;;;5083675;28;901;-77
2022/10/07 00:54:48;;;;;;;;;;;;;;;;;;5083270;28;1140;-77
2022/10/07 00:57:13;;;;;;;;;;;;;;;;;;5083628;28;838;-77
2022/10/07 00:59:39;;;;;;;;;;;;;;;;;;5083666;28;1057;-77
2022/10/07 01:02:04;;;;;;;;;;;;;;;;;;5083569;28;823;-77
2022/10/07 01:04:29;;;;;;;;;;;;;;;;;;5083195;28;1906;-77
2022/10/07 01:06:55;;;;;;;;;;;;;;;;;;5083486;28;882;-77
2022/10/07 01:09:21;;;;;;;;;;;;;;;;;;5083443;28;838;-77
2022/10/07 01:11:52;;;;;;;;;;;;;;;;;;5083510;28;847;-77
2022/10/07 01:14:28;;;;;;;;;;;;;;;;;;5083523;28;1239;-77
2022/10/07 01:16:53;;;;;;;;;;;;;;;;;;5083273;28;893;-77
2022/10/07 01:19:44;;;;;;;;;;;;;;;;;;5083294;28;875;-77
2022/10/07 01:22:21;;;;;;;;;;;;;;;;;;5082884;28;877;-77
2022/10/07 01:24:53;;;;;;;;;;;;;;;;;;5083287;28;1960;-77
2022/10/07 01:27:20;;;;;;;;;;;;;;;;;;5083036;28;814;-77
2022/10/07 01:29:54;;;;;;;;;;;;;;;;;;5083189;28;1064;-77
2022/10/07 01:32:25;;;;;;;;;;;;;;;;;;5083050;28;926;-77
2022/10/07 01:34:53;;;;;;;;;;;;;;;;;;5082822;28;1140;-77
2022/10/07 01:37:19;;;;;;;;;;;;;;;;;;5083488;28;850;-77
2022/10/07 01:39:48;;;;;;;;;;;;;;;;;;5082981;28;989;-77
2022/10/07 01:42:14;;;;;;;;;;;;;;;;;;5082693;28;838;-77
2022/10/07 01:44:39;;;;;;;;;;;;;;;;;;5082722;28;1890;-77
2022/10/07 01:47:06;;;;;;;;;;;;;;;;;;5082871;28;1035;-77
2022/10/07 01:49:31;;;;;;;;;;;;;;;;;;5082934;28;877;-77
2022/10/07 01:52:16;;;;;;;;;;;;;;;;;;5082775;28;996;-77
2022/10/07 01:54:50;;;;;;;;;;;;;;;;;;5081687;28;1205;-77
2022/10/07 01:57:34;;;;;;;;;;;;;;;;;;5082799;28;822;-77
2022/10/07 02:00:07;;;;;;;;;;;;;;;;;;5083017;28;818;-77
2022/10/07 02:02:46;;;;;;;;;;;;;;;;;;5082483;28;1906;-77
2022/10/07 02:05:32;;;;;;;;;;;;;;;;;;5082395;28;1258;-77
2022/10/07 02:08:08;;;;;;;;;;;;;;;;;;5081895;28;1118;-77
2022/10/07 02:10:42;;;;;;;;;;;;;;;;;;5082749;28;854;-77
2022/10/07 02:13:22;;;;;;;;;;;;;;;;;;5082334;28;1005;-78
2022/10/07 02:15:50;;;;;;;;;;;;;;;;;;5082458;28;1231;-77
2022/10/07 02:18:16;;;;;;;;;;;;;;;;;;5082675;28;889;-77
2022/10/07 02:20:44;;;;;;;;;;;;;;;;;;5082477;28;1044;-77
2022/10/07 02:23:10;;;;;;;;;;;;;;;;;;5082165;28;1901;-77
2022/10/07 02:25:39;;;;;;;;;;;;;;;;;;5082087;28;1140;-77
2022/10/07 02:28:04;;;;;;;;;;;;;;;;;;5082141;28;898;-77
2022/10/07 02:30:31;;;;;;;;;;;;;;;;;;5082043;28;798;-77
2022/10/07 02:32:59;;;;;;;;;;;;;;;;;;5081112;28;1036;-77
2022/10/07 02:35:31;;;;;;;;;;;;;;;;;;5082009;28;1226;-77
2022/10/07 02:37:58;;;;;;;;;;;;;;;;;;5082005;28;977;-77
2022/10/07 02:40:28;;;;;;;;;;;;;;;;;;5081949;28;1048;-77
2022/10/07 02:43:05;;;;;;;;;;;;;;;;;;5082207;28;1889;-77
2022/10/07 02:45:44;;;;;;;;;;;;;;;;;;5081574;28;1254;-77
2022/10/07 02:48:14;;;;;;;;;;;;;;;;;;5082003;28;818;-78
2022/10/07 02:50:41;;;;;;;;;;;;;;;;;;5081799;28;893;-78
2022/10/07 02:53:06;;;;;;;;;;;;;;;;;;5081738;28;926;-78
2022/10/07 02:55:32;;;;;;;;;;;;;;;;;;5081490;28;1144;-78
2022/10/07 02:57:59;;;;;;;;;;;;;;;;;;5082029;28;854;-77
2022/10/07 03:00:25;;;;;;;;;;;;;;;;;;5081550;28;930;-77
2022/10/07 03:02:52;;;;;;;;;;;;;;;;;;5081698;28;1901;-77
2022/10/07 03:05:19;;;;;;;;;;;;;;;;;;5081185;28;1125;-77
2022/10/07 03:07:45;;;;;;;;;;;;;;;;;;5081847;28;827;-77
2022/10/07 03:10:11;;;;;;;;;;;;;;;;;;5081512;28;874;-78
2022/10/07 03:12:36;;;;;;;;;;;;;;;;;;5081834;28;921;-78
2022/10/07 03:15:02;;;;;;;;;;;;;;;;;;5081299;28;1168;-77
2022/10/07 03:17:27;;;;;;;;;;;;;;;;;;5081818;28;997;-77
2022/10/07 03:19:52;;;;;;;;;;;;;;;;;;5081672;28;814;-77
2022/10/07 03:22:18;;;;;;;;;;;;;;;;;;5063654;28;883;-77
2022/10/07 03:24:43;;;;;;;;;;;;;;;;;;5081572;28;1897;-77
2022/10/07 03:27:08;;;;;;;;;;;;;;;;;;5081368;28;953;-77
2022/10/07 03:29:36;;;;;;;;;;;;;;;;;;5081298;28;862;-77
2022/10/07 03:32:02;;;;;;;;;;;;;;;;;;5081308;28;873;-77
2022/10/07 03:34:27;;;;;;;;;;;;;;;;;;5081020;28;1254;-77
2022/10/07 03:36:53;;;;;;;;;;;;;;;;;;5081171;28;1048;-77
2022/10/07 03:39:19;;;;;;;;;;;;;;;;;;5080600;28;837;-78
2022/10/07 03:41:44;;;;;;;;;;;;;;;;;;5080101;28;933;-77
2022/10/07 03:44:09;;;;;;;;;;;;;;;;;;5080881;28;1948;-77
2022/10/07 03:46:34;;;;;;;;;;;;;;;;;;5080901;28;968;-77
2022/10/07 03:49:00;;;;;;;;;;;;;;;;;;5081017;28;877;-77
2022/10/07 03:51:25;;;;;;;;;;;;;;;;;;5081017;28;814;-77
2022/10/07 03:53:53;;;;;;;;;;;;;;;;;;5063206;28;1764;-77
2022/10/07 03:56:18;;;;;;;;;;;;;;;;;;5080748;28;915;-77
2022/10/07 03:58:43;;;;;;;;;;;;;;;;;;5081212;28;890;-77
2022/10/07 04:01:09;;;;;;;;;;;;;;;;;;5080809;28;1001;-77
2022/10/07 04:03:35;;;;;;;;;;;;;;;;;;5080729;28;1956;-77
2022/10/07 04:06:02;;;;;;;;;;;;;;;;;;5080587;28;985;-77
2022/10/07 04:08:28;;;;;;;;;;;;;;;;;;5080926;28;874;-77
2022/10/07 04:10:53;;;;;;;;;;;;;;;;;;5080878;28;873;-77
2022/10/07 04:13:18;;;;;;;;;;;;;;;;;;5080759;28;1009;-77
2022/10/07 04:15:43;;;;;;;;;;;;;;;;;;5080451;28;1159;-77
2022/10/07 04:18:09;;;;;;;;;;;;;;;;;;5080642;28;965;-77
2022/10/07 04:20:36;;;;;;;;;;;;;;;;;;5080432;28;1005;-77
2022/10/07 04:23:01;;;;;;;;;;;;;;;;;;5080610;28;1891;-77
2022/10/07 04:25:32;;;;;;;;;;;;;;;;;;5080398;28;1166;-77
2022/10/07 04:27:58;;;;;;;;;;;;;;;;;;5080697;28;917;-77
2022/10/07 04:30:24;;;;;;;;;;;;;;;;;;5080533;28;787;-77
2022/10/07 04:32:50;;;;;;;;;;;;;;;;;;5080449;28;914;-77
2022/10/07 04:35:16;;;;;;;;;;;;;;;;;;5080118;28;1232;-77
2022/10/07 04:37:42;;;;;;;;;;;;;;;;;;5080277;28;1059;-77
2022/10/07 04:40:07;;;;;;;;;;;;;;;;;;5080554;28;882;-77
2022/10/07 04:45:17;;;;;;;;;;;;;;;;;;5080179;28;1255;-76
2022/10/07 04:47:43;;;;;;;;;;;;;;;;;;5080421;28;981;-77
2022/10/07 04:50:09;;;;;;;;;;;;;;;;;;5080416;28;748;-77
2022/10/07 04:52:34;;;;;;;;;;;;;;;;;;5080193;28;998;-77
2022/10/07 04:54:59;;;;;;;;;;;;;;;;;;5080201;28;1200;-77
2022/10/07 04:57:24;;;;;;;;;;;;;;;;;;5083234;28;946;-77
2022/10/07 04:59:49;;;;;;;;;;;;;;;;;;5083644;28;846;-77
2022/10/07 05:02:14;;;;;;;;;;;;;;;;;;5083803;28;1000;-77
2022/10/07 05:04:39;;;;;;;;;;;;;;;;;;5083497;28;1893;-77
2022/10/07 05:07:05;;;;;;;;;;;;;;;;;;5083665;28;949;-77
2022/10/07 05:09:30;;;;;;;;;;;;;;;;;;5083460;28;850;-77
2022/10/07 05:11:55;;;;;;;;;;;;;;;;;;5083603;28;898;-77
2022/10/07 05:14:21;;;;;;;;;;;;;;;;;;5083263;28;1262;-77
2022/10/07 05:16:47;;;;;;;;;;;;;;;;;;5083219;28;849;-77
2022/10/07 05:19:12;;;;;;;;;;;;;;;;;;5083330;28;900;-77
2022/10/07 05:21:37;;;;;;;;;;;;;;;;;;5083277;28;799;-77
2022/10/07 05:24:02;;;;;;;;;;;;;;;;;;5083013;28;1949;-77
2022/10/07 05:26:28;;;;;;;;;;;;;;;;;;5083099;28;890;-77
2022/10/07 05:28:53;;;;;;;;;;;;;;;;;;5083242;28;799;-77
2022/10/07 05:31:19;;;;;;;;;;;;;;;;;;5083184;28;1000;-77
2022/10/07 05:33:45;;;;;;;;;;;;;;;;;;5065155;28;1472;-76
2022/10/07 05:36:11;;;;;;;;;;;;;;;;;;5083078;28;919;-77
2022/10/07 05:38:36;;;;;;;;;;;;;;;;;;5083472;28;874;-77
2022/10/07 05:41:03;;;;;;;;;;;;;;;;;;5083009;28;858;-77
2022/10/07 05:43:29;;;;;;;;;;;;;;;;;;5083289;28;1893;-77
2022/10/07 05:46:05;;;;;;;;;;;;;;;;;;5082517;28;1286;-77
2022/10/07 05:48:31;;;;;;;;;;;;;;;;;;5082747;28;1134;-77
2022/10/07 05:50:57;;;;;;;;;;;;;;;;;;5082843;28;925;-77
2022/10/07 05:53:23;;;;;;;;;;;;;;;;;;5082887;28;833;-77
2022/10/07 05:55:49;;;;;;;;;;;;;;;;;;5082483;28;1172;-77
2022/10/07 05:58:14;;;;;;;;;;;;;;;;;;5082680;28;822;-77
2022/10/07 06:00:46;;;;;;;;;;;;;;;;;;5064538;28;878;-77
2022/10/07 06:03:11;;;;;;;;;;;;;;;;;;5082646;28;1960;-76
2022/10/07 06:05:36;;;;;;;;;;;;;;;;;;5082250;28;1317;-77
2022/10/07 06:08:01;;;;;;;;;;;;;;;;;;5082749;28;882;-77
2022/10/07 06:13:10;;;;;;;;;;;;;;;;;;5062936;28;660;-76
2022/10/07 06:15:36;;;;;;;;;;;;;;;;;;5062153;28;1228;-77
2022/10/07 06:18:02;;;;;;;;;;;;;;;;;;5062663;28;965;-76
2022/10/07 06:20:27;;;;;;;;;;;;;;;;;;5062257;28;981;-76
2022/10/07 06:22:53;;;;;;;;;;;;;;;;;;5062653;28;1943;-76
2022/10/07 06:25:18;;;;;;;;;;;;;;;;;;5061788;28;1192;-77
2022/10/07 06:27:43;;;;;;;;;;;;;;;;;;5062172;28;882;-77
2022/10/07 06:30:09;;;;;;;;;;;;;;;;;;5062007;28;969;-76
2022/10/07 06:32:34;;;;;;;;;;;;;;;;;;5062150;28;1415;-76
2022/10/07 06:34:59;;;;;;;;;;;;;;;;;;5061755;28;1282;-76
2022/10/07 06:37:24;;;;;;;;;;;;;;;;;;5062044;28;841;-77
2022/10/07 06:39:49;;;;;;;;;;;;;;;;;;5061955;28;818;-76
2022/10/07 06:42:15;;;;;;;;;;;;;;;;;;5061896;28;846;-76
2022/10/07 06:45:05;;;;;;;;;;;;;;;;;;5062577;28;1914;-79
2022/10/07 06:47:30;;;;;;;;;;;;;;;;;;5019630;28;1397;-76
2022/10/07 06:49:55;;;;;;;;;;;;;;;;;;5019970;28;1506;-75
2022/10/07 06:52:20;;;;;;;;;;;;;;;;;;5021290;28;891;-76
2022/10/07 06:54:45;;;;;;;;;;;;;;;;;;5021049;28;1196;-76
2022/10/07 06:57:11;;;;;;;;;;;;;;;;;;5021107;28;1002;-76
2022/10/07 06:59:36;;;;;;;;;;;;;;;;;;5021061;28;945;-76
2022/10/07 07:02:01;;;;;;;;;;;;;;;;;;5021020;28;1079;-76
2022/10/07 07:04:26;;;;;;;;;;;;;;;;;;5021033;28;1911;-76
2022/10/07 07:06:52;;;;;;;;;;;;;;;;;;5020958;28;1117;-76
2022/10/07 07:09:18;;;;;;;;;;;;;;;;;;5021283;28;827;-76
2022/10/07 07:11:44;;;;;;;;;;;;;;;;;;5020911;28;854;-76
2022/10/07 07:14:10;;;;;;;;;;;;;;;;;;5021059;28;879;-76
2022/10/07 07:16:36;;;;;;;;;;;;;;;;;;5020521;28;1240;-76
2022/10/07 07:19:03;;;;;;;;;;;;;;;;;;5020460;28;847;-76
2022/10/07 07:21:29;;;;;;;;;;;;;;;;;;5020689;28;850;-74
2022/10/07 07:23:55;;;;;;;;;;;;;;;;;;5021024;28;1894;-75
2022/10/07 07:26:20;;;;;;;;;;;;;;;;;;5020572;28;1145;-76
2022/10/07 07:28:51;;;;;;;;;;;;;;;;;;5020934;28;993;-76
2022/10/07 07:31:17;;;;;;;;;;;;;;;;;;5020637;28;818;-76
2022/10/07 07:33:42;;;;;;;;;;;;;;;;;;5021081;28;784;-76
2022/10/07 07:36:14;;;;;;;;;;;;;;;;;;5020525;28;1168;-76
2022/10/07 07:38:39;;;;;;;;;;;;;;;;;;5021119;28;895;-76
2022/10/07 07:41:04;;;;;;;;;;;;;;;;;;5020558;28;894;-76
2022/10/07 07:43:30;;;;;;;;;;;;;;;;;;5019564;28;1898;-76
2022/10/07 07:45:57;;;;;;;;;;;;;;;;;;5020138;28;1176;-77
2022/10/07 07:48:22;;;;;;;;;;;;;;;;;;5020789;28;993;-77
2022/10/07 07:50:47;;;;;;;;;;;;;;;;;;5020398;28;847;-76
2022/10/07 07:53:12;;;;;;;;;;;;;;;;;;5020735;28;894;-76
2022/10/07 07:55:37;;;;;;;;;;;;;;;;;;5019836;28;1177;-76
2022/10/07 07:58:02;;;;;;;;;;;;;;;;;;5002922;28;939;-76
2022/10/07 08:00:28;;;;;;;;;;;;;;;;;;5020755;28;796;-75
2022/10/07 08:02:53;;;;;;;;;;;;;;;;;;5020441;28;1963;-76
2022/10/07 08:05:19;;;;;;;;;;;;;;;;;;5020369;28;1160;-76
2022/10/07 08:07:44;;;;;;;;;;;;;;;;;;5020350;28;796;-76
2022/10/07 08:10:09;;;;;;;;;;;;;;;;;;5020438;28;898;-76
2022/10/07 08:12:34;;;;;;;;;;;;;;;;;;5020324;28;835;-76
2022/10/07 08:14:59;;;;;;;;;;;;;;;;;;5020046;28;1148;-76
2022/10/07 08:17:24;;;;;;;;;;;;;;;;;;5020273;28;800;-74
2022/10/07 08:19:50;;;;;;;;;;;;;;;;;;5020372;28;851;-76
2022/10/07 08:22:16;;;;;;;;;;;;;;;;;;5018825;28;872;-75
2022/10/07 08:24:41;;;;;;;;;;;;;;;;;;5019088;28;1890;-76
2022/10/07 08:27:07;;;;;;;;;;;;;;;;;;5002542;28;1637;-76
2022/10/07 08:29:32;;;;;;;;;;;;;;;;;;5020173;28;864;-77
2022/10/07 08:31:57;;;;;;;;;;;;;;;;;;5022168;28;850;-76
2022/10/07 08:34:22;;;;;;;;;;;;;;;;;;5023422;28;1057;-76
2022/10/07 08:36:49;;;;;;;;;;;;;;;;;;5005608;28;1472;-76
2022/10/07 08:39:14;;;;;;;;;;;;;;;;;;5023550;28;830;-76
2022/10/07 08:41:55;;;;;;;;;;;;;;;;;;5023579;28;803;-76
2022/10/07 08:44:23;;;;;;;;;;;;;;;;;;5023113;28;1894;-76
2022/10/07 08:47:07;;;;;;;;;;;;;;;;;;5023299;28;1152;-74
2022/10/07 08:49:35;;;;;;;;;;;;;;;;;;5023537;28;991;-73
2022/10/07 08:52:04;;;;;;;;;;;;;;;;;;5023107;28;843;-76
2022/10/07 08:54:30;;;;;;;;;;;;;;;;;;5023111;28;863;-76
2022/10/07 08:56:57;;;;;;;;;;;;;;;;;;5023248;28;1295;-76
2022/10/07 08:59:30;;;;;;;;;;;;;;;;;;5023468;28;724;-76
2022/10/07 09:02:08;;;;;;;;;;;;;;;;;;5023138;28;930;-76
2022/10/07 09:04:47;;;;;;;;;;;;;;;;;;5022974;28;1902;-76
2022/10/07 09:07:17;;;;;;;;;;;;;;;;;;5023118;28;815;-76
2022/10/07 09:09:45;;;;;;;;;;;;;;;;;;5005392;28;1397;-76
2022/10/07 09:12:21;;;;;;;;;;;;;;;;;;5023043;28;819;-76
2022/10/07 09:14:47;;;;;;;;;;;;;;;;;;5022569;28;1192;-76
2022/10/07 09:17:25;;;;;;;;;;;;;;;;;;5022913;28;894;-77
2022/10/07 09:19:54;;;;;;;;;;;;;;;;;;5022996;28;843;-77
2022/10/07 09:22:22;;;;;;;;;;;;;;;;;;5023046;28;845;-76
2022/10/07 09:24:50;;;;;;;;;;;;;;;;;;5022376;28;1956;-76
2022/10/07 09:27:16;;;;;;;;;;;;;;;;;;5022925;28;886;-76
2022/10/07 09:29:41;;;;;;;;;;;;;;;;;;5022738;28;913;-76
2022/10/07 09:32:10;;;;;;;;;;;;;;;;;;5022651;28;776;-76
2022/10/07 09:34:35;;;;;;;;;;;;;;;;;;5022402;28;1263;-76
2022/10/07 09:37:21;;;;;;;;;;;;;;;;;;5022697;28;941;-76
2022/10/07 09:39:47;;;;;;;;;;;;;;;;;;5021944;28;1374;-76
2022/10/07 09:42:31;;;;;;;;;;;;;;;;;;5022362;28;829;-76
2022/10/07 09:44:57;;;;;;;;;;;;;;;;;;5021986;28;1906;-76
2022/10/07 09:47:23;;;;;;;;;;;;;;;;;;5022676;28;866;-77
2022/10/07 09:49:51;;;;;;;;;;;;;;;;;;5022423;28;1032;-76
2022/10/07 09:52:17;;;;;;;;;;;;;;;;;;5022204;28;1001;-76
2022/10/07 09:54:44;;;;;;;;;;;;;;;;;;5021851;28;1287;-76
2022/10/07 09:57:21;;;;;;;;;;;;;;;;;;5022117;28;910;-76
2022/10/07 09:59:47;;;;;;;;;;;;;;;;;;5022196;28;901;-77
2022/10/07 10:02:12;;;;;;;;;;;;;;;;;;5021993;28;966;-77
2022/10/07 10:04:38;;;;;;;;;;;;;;;;;;5021788;28;1963;-77
2022/10/07 10:07:04;;;;;;;;;;;;;;;;;;5021875;28;919;-77
2022/10/07 10:09:31;;;;;;;;;;;;;;;;;;5022040;28;982;-76
2022/10/07 10:12:11;;;;;;;;;;;;;;;;;;5021776;28;938;-77
2022/10/07 10:14:56;;;;;;;;;;;;;;;;;;5021992;28;1330;-77
2022/10/07 10:17:29;;;;;;;;;;;;;;;;;;5021048;28;1867;-77
2022/10/07 10:19:55;;;;;;;;;;;;;;;;;;5021955;28;902;-77
2022/10/07 10:22:28;;;;;;;;;;;;;;;;;;5021556;28;970;-77
2022/10/07 10:27:49;;;;;;;;;;;;;;;;;;5022255;28;610;-77
2022/10/07 10:30:19;;;;;;;;;;;;;;;;;;5004104;28;883;-77
2022/10/07 10:33:08;;;;;;;;;;;;;;;;;;5021604;28;842;-76
2022/10/07 10:35:38;;;;;;;;;;;;;;;;;;5003619;28;1347;-76
2022/10/07 10:38:09;;;;;;;;;;;;;;;;;;5021771;28;890;-75
2022/10/07 10:40:37;;;;;;;;;;;;;;;;;;5021731;28;851;-74
2022/10/07 10:43:20;;;;;;;;;;;;;;;;;;5021508;28;1898;-76
2022/10/07 10:45:56;;;;;;;;;;;;;;;;;;5020978;28;1243;-76
2022/10/07 10:48:30;;;;;;;;;;;;;;;;;;5021762;28;990;-76
2022/10/07 10:51:26;;;;;;;;;;;;;;;;;;5021541;28;831;-76
2022/10/07 10:53:58;;;;;;;;;;;;;;;;;;5020497;28;823;-76
2022/10/07 10:56:31;;;;;;;;;;;;;;;;;;5020791;28;1247;-76
2022/10/07 10:58:57;;;;;;;;;;;;;;;;;;5021405;28;978;-76
2022/10/07 11:01:22;;;;;;;;;;;;;;;;;;5021331;28;845;-76
2022/10/07 11:04:06;;;;;;;;;;;;;;;;;;5020025;28;1963;-76
2022/10/07 11:06:33;;;;;;;;;;;;;;;;;;5021093;28;1239;-76
2022/10/07 11:08:59;;;;;;;;;;;;;;;;;;5021247;28;1064;-76
2022/10/07 11:11:25;;;;;;;;;;;;;;;;;;5020913;28;855;-76
2022/10/07 11:14:04;;;;;;;;;;;;;;;;;;5021226;28;874;-76
2022/10/07 11:16:38;;;;;;;;;;;;;;;;;;5020675;28;1149;-76
2022/10/07 11:19:19;;;;;;;;;;;;;;;;;;5021220;28;843;-76
2022/10/07 11:21:47;;;;;;;;;;;;;;;;;;5020785;28;811;-77
2022/10/07 11:24:15;;;;;;;;;;;;;;;;;;5020952;28;1889;-76
2022/10/07 11:26:42;;;;;;;;;;;;;;;;;;5020498;28;1244;-76
2022/10/07 11:29:10;;;;;;;;;;;;;;;;;;5021186;28;772;-76
2022/10/07 11:31:38;;;;;;;;;;;;;;;;;;5020974;28;716;-76
2022/10/07 11:34:06;;;;;;;;;;;;;;;;;;5020894;28;819;-76
2022/10/07 11:36:38;;;;;;;;;;;;;;;;;;5020580;28;1255;-76
2022/10/07 11:39:04;;;;;;;;;;;;;;;;;;5020912;28;796;-76
2022/10/07 11:41:34;;;;;;;;;;;;;;;;;;5020784;28;1076;-76
2022/10/07 11:44:02;;;;;;;;;;;;;;;;;;5020501;28;1894;-76
2022/10/07 11:46:53;;;;;;;;;;;;;;;;;;5020429;28;1228;-76
2022/10/07 11:49:24;;;;;;;;;;;;;;;;;;5015908;28;1687;-76
2022/10/07 11:51:50;;;;;;;;;;;;;;;;;;5020604;28;914;-76
2022/10/07 11:54:16;;;;;;;;;;;;;;;;;;5020459;28;902;-76
2022/10/07 11:56:44;;;;;;;;;;;;;;;;;;5020303;28;1168;-77
2022/10/07 11:59:26;;;;;;;;;;;;;;;;;;5020432;28;804;-76
2022/10/07 12:01:52;;;;;;;;;;;;;;;;;;5019321;28;1307;-76
2022/10/07 12:04:19;;;;;;;;;;;;;;;;;;5020469;28;1901;-76
2022/10/07 12:07:03;;;;;;;;;;;;;;;;;;5022390;28;1164;-78
2022/10/07 12:09:47;;;;;;;;;;;;;;;;;;5023986;28;839;-76
2022/10/07 12:12:13;;;;;;;;;;;;;;;;;;5024073;28;1072;-77
2022/10/07 12:14:42;;;;;;;;;;;;;;;;;;5023432;28;1196;-77
2022/10/07 12:17:21;;;;;;;;;;;;;;;;;;5024029;28;902;-76
2022/10/07 12:20:06;;;;;;;;;;;;;;;;;;5023971;28;812;-77
2022/10/07 12:22:31;;;;;;;;;;;;;;;;;;5023903;28;1377;-75
2022/10/07 12:25:15;;;;;;;;;;;;;;;;;;5023148;28;1957;-75
2022/10/07 12:27:45;;;;;;;;;;;;;;;;;;5023662;28;852;-75
2022/10/07 12:30:30;;;;;;;;;;;;;;;;;;5023795;28;867;-76
2022/10/07 12:32:55;;;;;;;;;;;;;;;;;;5023499;28;1042;-75
2022/10/07 12:35:35;;;;;;;;;;;;;;;;;;5023300;28;1188;-76
2022/10/07 12:38:02;;;;;;;;;;;;;;;;;;5023509;28;970;-77
2022/10/07 12:40:29;;;;;;;;;;;;;;;;;;5023619;28;835;-76
2022/10/07 12:43:02;;;;;;;;;;;;;;;;;;5023356;28;780;-76
2022/10/07 12:45:28;;;;;;;;;;;;;;;;;;5042621;22;2137;-69
2022/10/07 12:47:54;;;;;;;;;;;;;;;;;;5063889;28;823;-69
2022/10/07 12:50:21;;;;;;;;;;;;;;;;;;5063800;28;830;-70
2022/10/07 12:52:50;;;;;;;;;;;;;;;;;;5063866;28;929;-70
2022/10/07 12:55:19;;;;;;;;;;;;;;;;;;5061114;28;1258;-69
2022/10/07 12:57:49;;;;;;;;;;;;;;;;;;5063602;28;783;-69
2022/10/07 13:00:16;;;;;;;;;;;;;;;;;;5063531;28;886;-70
2022/10/07 13:02:41;;;;;;;;;;;;;;;;;;5063584;28;798;-69
2022/10/07 13:05:25;;;;;;;;;;;;;;;;;;5062783;28;1954;-70
2022/10/07 13:07:53;;;;;;;;;;;;;;;;;;5063555;28;886;-70
2022/10/07 13:10:36;;;;;;;;;;;;;;;;;;5063186;28;977;-69
2022/10/07 13:13:07;;;;;;;;;;;;;;;;;;5063603;28;904;-69
2022/10/07 13:15:41;;;;;;;;;;;;;;;;;;5062650;28;1160;-69
2022/10/07 13:18:20;;;;;;;;;;;;;;;;;;5062714;28;827;-69
2022/10/07 13:20:55;;;;;;;;;;;;;;;;;;5063694;28;829;-70
2022/10/07 13:23:20;;;;;;;;;;;;;;;;;;5063078;28;1959;-70
2022/10/07 13:25:48;;;;;;;;;;;;;;;;;;5061407;28;1262;-70
2022/10/07 13:28:15;;;;;;;;;;;;;;;;;;5063268;28;881;-69
2022/10/07 13:30:41;;;;;;;;;;;;;;;;;;5063281;28;838;-69
2022/10/07 13:33:25;;;;;;;;;;;;;;;;;;5063075;28;1047;-70
2022/10/07 13:35:51;;;;;;;;;;;;;;;;;;5062518;28;1140;-69
2022/10/07 13:38:20;;;;;;;;;;;;;;;;;;5063451;28;794;-70
2022/10/07 13:40:51;;;;;;;;;;;;;;;;;;5061893;28;957;-69
2022/10/07 13:43:17;;;;;;;;;;;;;;;;;;5063348;28;1898;-70
2022/10/07 13:45:43;;;;;;;;;;;;;;;;;;5062259;28;1136;-69
2022/10/07 13:48:15;;;;;;;;;;;;;;;;;;5063140;28;835;-69
2022/10/07 13:50:42;;;;;;;;;;;;;;;;;;5062842;28;830;-70
2022/10/07 13:53:13;;;;;;;;;;;;;;;;;;5062751;28;818;-70
2022/10/07 13:55:38;;;;;;;;;;;;;;;;;;5062308;28;1200;-70
2022/10/07 13:58:04;;;;;;;;;;;;;;;;;;5062583;28;862;-69
2022/10/07 14:00:31;;;;;;;;;;;;;;;;;;5062468;28;803;-69
2022/10/07 14:02:56;;;;;;;;;;;;;;;;;;5062660;28;846;-69
2022/10/07 14:05:24;;;;;;;;;;;;;;;;;;5062095;28;1875;-69
2022/10/07 14:07:54;;;;;;;;;;;;;;;;;;5062546;28;906;-69
2022/10/07 14:10:20;;;;;;;;;;;;;;;;;;5062564;28;898;-70
2022/10/07 14:12:47;;;;;;;;;;;;;;;;;;5062227;28;902;-70
2022/10/07 14:15:12;;;;;;;;;;;;;;;;;;5060607;28;1164;-69
2022/10/07 14:17:37;;;;;;;;;;;;;;;;;;5062334;28;858;-70
2022/10/07 14:20:04;;;;;;;;;;;;;;;;;;5062454;28;978;-69
2022/10/07 14:22:42;;;;;;;;;;;;;;;;;;5062396;28;826;-69
2022/10/07 14:25:18;;;;;;;;;;;;;;;;;;5061624;28;1957;-69
2022/10/07 14:28:03;;;;;;;;;;;;;;;;;;5061974;28;1867;-69
2022/10/07 14:36:17;;;;;;;;;;;;;;;;;;5062036;28;1188;-69
2022/10/07 14:38:43;;;;;;;;;;;;;;;;;;5061851;28;1009;-70
2022/10/07 14:41:09;;;;;;;;;;;;;;;;;;5062210;28;870;-70
2022/10/07 14:43:35;;;;;;;;;;;;;;;;;;5061944;28;1953;-70
2022/10/07 14:46:07;;;;;;;;;;;;;;;;;;5061254;28;1242;-70
2022/10/07 14:48:32;;;;;;;;;;;;;;;;;;5061990;28;846;-70
2022/10/07 14:50:58;;;;;;;;;;;;;;;;;;5061839;28;909;-70
2022/10/07 14:53:23;;;;;;;;;;;;;;;;;;5061697;28;832;-70
2022/10/07 14:55:48;;;;;;;;;;;;;;;;;;5061371;28;1263;-70
2022/10/07 14:58:13;;;;;;;;;;;;;;;;;;5061628;28;909;-70
2022/10/07 15:00:38;;;;;;;;;;;;;;;;;;5061727;28;985;-70
2022/10/07 15:03:04;;;;;;;;;;;;;;;;;;5061449;28;1961;-70
2022/10/07 15:05:32;;;;;;;;;;;;;;;;;;5061263;28;1160;-70
2022/10/07 15:07:58;;;;;;;;;;;;;;;;;;5061607;28;838;-70
2022/10/07 15:10:25;;;;;;;;;;;;;;;;;;5061675;28;881;-70
2022/10/07 15:12:50;;;;;;;;;;;;;;;;;;5060194;28;1544;-69
2022/10/07 15:15:16;;;;;;;;;;;;;;;;;;5061045;28;1141;-69
2022/10/07 15:17:41;;;;;;;;;;;;;;;;;;5061477;28;819;-70
2022/10/07 15:20:08;;;;;;;;;;;;;;;;;;5061343;28;945;-70
2022/10/07 15:22:33;;;;;;;;;;;;;;;;;;5061496;28;980;-70
2022/10/07 15:24:58;;;;;;;;;;;;;;;;;;5060834;28;1910;-70
2022/10/07 15:27:24;;;;;;;;;;;;;;;;;;5061234;28;1238;-70
2022/10/07 15:29:53;;;;;;;;;;;;;;;;;;5061156;28;910;-70
2022/10/07 15:32:19;;;;;;;;;;;;;;;;;;5061500;28;854;-70
2022/10/07 15:34:45;;;;;;;;;;;;;;;;;;5060786;28;858;-70
2022/10/07 15:37:10;;;;;;;;;;;;;;;;;;5061206;28;1278;-70
2022/10/07 15:39:35;;;;;;;;;;;;;;;;;;5060463;28;918;-70
2022/10/07 15:42:00;;;;;;;;;;;;;;;;;;5061042;28;795;-70
2022/10/07 15:44:28;;;;;;;;;;;;;;;;;;5060676;28;1893;-70
2022/10/07 15:46:53;;;;;;;;;;;;;;;;;;5060809;28;1189;-70
2022/10/07 15:49:19;;;;;;;;;;;;;;;;;;5060913;28;981;-70
2022/10/07 15:51:45;;;;;;;;;;;;;;;;;;5060854;28;867;-70
2022/10/07 15:54:11;;;;;;;;;;;;;;;;;;5061035;28;830;-70
2022/10/07 15:56:36;;;;;;;;;;;;;;;;;;5060603;28;1265;-70
2022/10/07 15:59:01;;;;;;;;;;;;;;;;;;5060758;28;993;-70
2022/10/07 16:01:27;;;;;;;;;;;;;;;;;;5059545;28;811;-70
2022/10/07 16:03:53;;;;;;;;;;;;;;;;;;5060616;28;2032;-70
2022/10/07 16:06:22;;;;;;;;;;;;;;;;;;5060576;28;1169;-70
2022/10/07 16:08:48;;;;;;;;;;;;;;;;;;5060809;28;1064;-70
2022/10/07 16:11:13;;;;;;;;;;;;;;;;;;5059679;28;912;-70
2022/10/07 16:13:40;;;;;;;;;;;;;;;;;;5060808;28;862;-70
2022/10/07 16:16:07;;;;;;;;;;;;;;;;;;5060452;28;1200;-70
2022/10/07 16:18:36;;;;;;;;;;;;;;;;;;5060656;28;938;-70
2022/10/07 16:21:18;;;;;;;;;;;;;;;;;;5061921;28;858;-70
2022/10/07 16:23:44;;;;;;;;;;;;;;;;;;5071017;28;1949;-71
2022/10/07 16:26:13;;;;;;;;;;;;;;;;;;5060174;28;1274;-71
2022/10/07 16:31:27;;;;;;;;;;;;;;;;;;5060713;28;617;-71
2022/10/07 16:33:53;;;;;;;;;;;;;;;;;;5060553;28;815;-71
2022/10/07 16:36:20;;;;;;;;;;;;;;;;;;5058648;28;1184;-71
2022/10/07 16:38:45;;;;;;;;;;;;;;;;;;5060399;28;865;-71
2022/10/07 16:41:10;;;;;;;;;;;;;;;;;;5060558;28;787;-71
2022/10/07 16:43:35;;;;;;;;;;;;;;;;;;5060437;28;1965;-71
2022/10/07 16:46:02;;;;;;;;;;;;;;;;;;5059778;28;1195;-71
2022/10/07 16:48:27;;;;;;;;;;;;;;;;;;5060466;28;865;-71
2022/10/07 16:50:52;;;;;;;;;;;;;;;;;;5060255;28;842;-71
2022/10/07 16:53:17;;;;;;;;;;;;;;;;;;5062766;28;984;-71
2022/10/07 16:55:43;;;;;;;;;;;;;;;;;;5063102;28;1278;-71
2022/10/07 16:58:08;;;;;;;;;;;;;;;;;;5063677;28;981;-71
2022/10/07 17:00:34;;;;;;;;;;;;;;;;;;5063686;28;890;-70
2022/10/07 17:03:00;;;;;;;;;;;;;;;;;;5063976;28;858;-71
2022/10/07 17:05:25;;;;;;;;;;;;;;;;;;5062920;28;1906;-71
2022/10/07 17:07:50;;;;;;;;;;;;;;;;;;5063540;28;838;-71
2022/10/07 17:10:15;;;;;;;;;;;;;;;;;;5063539;28;914;-70
2022/10/07 17:12:40;;;;;;;;;;;;;;;;;;5063743;28;799;-70
2022/10/07 17:15:06;;;;;;;;;;;;;;;;;;5062991;28;1208;-70
2022/10/07 17:17:32;;;;;;;;;;;;;;;;;;5063160;28;894;-70
2022/10/07 17:19:57;;;;;;;;;;;;;;;;;;5063524;28;889;-71
2022/10/07 17:22:22;;;;;;;;;;;;;;;;;;5061849;28;1317;-70
2022/10/07 17:24:48;;;;;;;;;;;;;;;;;;5063039;28;1914;-70
2022/10/07 17:27:13;;;;;;;;;;;;;;;;;;5062861;28;1172;-70
2022/10/07 17:29:38;;;;;;;;;;;;;;;;;;5063762;28;1019;-71
2022/10/07 17:32:04;;;;;;;;;;;;;;;;;;5062965;28;1178;-70
2022/10/07 17:34:32;;;;;;;;;;;;;;;;;;5063269;28;756;-71
2022/10/07 17:36:58;;;;;;;;;;;;;;;;;;5062739;28;1180;-70